Aviation Digital Data Service (ADDS)

Output produced by METARs form (1217 UTC 26 March 2019)
found at http://www.aviationweather.gov/metar/data/
 
KUAO 261134Z 2612/2712 VRB03KT P6SM SCT050 
     FM261600 VRB02KT P6SM SCT025 BKN045 
     FM262100 VRB03KT P6SM SCT250 
     FM270500 08005KT P6SM SCT250
       
KUES 261120Z 2612/2712 00000KT P6SM SKC 
     FM261900 20005KT P6SM FEW250 
     FM270000 17004KT P6SM SKC
       
KUIN 261120Z 2612/2712 09006KT P6SM SCT250 
     FM270100 14006KT P6SM SKC
       
KUKI 261140Z 2612/2712 00000KT P6SM SCT004 OVC015 
     FM262000 15009KT P6SM SCT035 BKN150 
     FM270200 15005KT P6SM BKN035 OVC100
       
KUNV 261121Z 2612/2712 06007KT P6SM SKC
       
KUTS 261120Z 2612/2712 01005KT P6SM SKC 
     FM270000 VRB03KT P6SM SCT250